Time;durP1;ratioP1;P1;durP2;ratioP2;P2;SDS_P1;SDS_P2;PMS_P1;PMS_P2;Temp;Humidity;BMP_temperature;BMP_pressure;BME280_temperature;BME280_humidity;BME280_pressure;Samples;Min_cycle;Max_cycle;Signal;HPM_P1;HPM_P2
2022/10/01 00:01:00;;;;;;;0.20;0.20;;;10.00;99.90;;;;;;5080181;28;20439;-84
2022/10/01 00:03:27;;;;;;;0.20;0.20;;;10.00;99.90;;;;;;5085939;28;21050;-85
2022/10/01 00:06:01;;;;;;;0.20;0.20;;;10.10;99.90;;;;;;5063499;28;20380;-84
2022/10/01 00:08:28;;;;;;;0.20;0.20;;;10.00;99.90;;;;;;5065574;28;20454;-84
2022/10/01 00:10:54;;;;;;;0.20;0.20;;;10.00;99.90;;;;;;5084781;28;20439;-85
2022/10/01 00:13:20;;;;;;;0.20;0.20;;;10.10;99.90;;;;;;5077379;28;20478;-86
2022/10/01 00:15:46;;;;;;;0.20;0.20;;;10.10;99.90;;;;;;5081407;28;20193;-86
2022/10/01 00:18:11;;;;;;;0.20;0.20;;;10.10;99.90;;;;;;5086804;28;20228;-84
2022/10/01 00:20:43;;;;;;;0.20;0.20;;;10.00;99.90;;;;;;5081353;28;20522;-83
2022/10/01 00:23:10;;;;;;;0.20;0.20;;;10.10;99.90;;;;;;5060119;28;20297;-84
2022/10/01 00:25:36;;;;;;;0.20;0.20;;;10.10;99.90;;;;;;5080818;28;20462;-84
2022/10/01 00:28:02;;;;;;;0.20;0.20;;;10.20;99.90;;;;;;5063871;28;20451;-84
2022/10/01 00:30:27;;;;;;;0.20;0.20;;;10.20;99.90;;;;;;5082705;28;20567;-85
2022/10/01 00:32:53;;;;;;;0.20;0.20;;;10.10;99.90;;;;;;5085621;28;20185;-85
2022/10/01 00:35:21;;;;;;;0.20;0.20;;;10.10;99.90;;;;;;5087355;28;20181;-86
2022/10/01 00:37:49;;;;;;;0.20;0.20;;;10.20;99.90;;;;;;5072670;28;20806;-84
2022/10/01 00:40:15;;;;;;;0.20;0.20;;;10.20;99.90;;;;;;5082902;28;20481;-85
2022/10/01 00:42:41;;;;;;;0.20;0.20;;;10.20;99.90;;;;;;5068575;28;21298;-86
2022/10/01 00:45:08;;;;;;;0.20;0.20;;;10.20;99.90;;;;;;5082238;28;20472;-84
2022/10/01 00:47:52;;;;;;;0.20;0.20;;;10.20;99.90;;;;;;5069348;28;20189;-85
2022/10/01 00:50:31;;;;;;;0.20;0.20;;;10.20;99.90;;;;;;5072058;28;20438;-85
2022/10/01 00:53:02;;;;;;;0.20;0.20;;;10.20;99.90;;;;;;5054299;28;21027;-85
2022/10/01 00:55:38;;;;;;;0.20;0.20;;;10.20;99.90;;;;;;5067539;28;20523;-85
2022/10/01 00:58:04;;;;;;;0.20;0.20;;;10.20;99.90;;;;;;5069445;28;20442;-84
2022/10/01 01:00:30;;;;;;;0.20;0.20;;;10.20;99.90;;;;;;5067841;28;20452;-84
2022/10/01 01:02:56;;;;;;;0.20;0.20;;;10.20;99.90;;;;;;5087272;28;21024;-84
2022/10/01 01:05:22;;;;;;;0.20;0.20;;;10.20;99.90;;;;;;5085805;28;20442;-86
2022/10/01 01:07:49;;;;;;;0.20;0.20;;;10.20;99.90;;;;;;5068752;28;20189;-85
2022/10/01 01:10:18;;;;;;;0.20;0.20;;;10.10;99.90;;;;;;5081965;28;20189;-84
2022/10/01 01:13:00;;;;;;;0.20;0.20;;;10.10;99.90;;;;;;5084212;28;20446;-84
2022/10/01 01:15:41;;;;;;;0.30;0.30;;;10.20;99.90;;;;;;5085111;28;20459;-86
2022/10/01 01:18:22;;;;;;;0.20;0.20;;;10.20;99.90;;;;;;5085836;28;20442;-85
2022/10/01 01:20:50;;;;;;;0.20;0.20;;;10.20;99.90;;;;;;5085996;28;20509;-84
2022/10/01 01:23:15;;;;;;;0.20;0.20;;;10.20;99.90;;;;;;5068766;28;21300;-83
2022/10/01 01:25:55;;;;;;;0.20;0.20;;;10.20;99.90;;;;;;5083902;28;20550;-89
2022/10/01 01:28:33;;;;;;;0.20;0.20;;;10.20;99.90;;;;;;5084849;28;20178;-85
2022/10/01 01:31:04;;;;;;;0.20;0.20;;;10.10;99.90;;;;;;5086095;28;20451;-84
2022/10/01 01:33:33;;;;;;;0.20;0.20;;;10.10;99.90;;;;;;5069935;28;20530;-83
2022/10/01 01:36:08;;;;;;;0.20;0.20;;;10.10;99.90;;;;;;5085150;28;20531;-83
2022/10/01 01:38:42;;;;;;;0.20;0.20;;;10.20;99.90;;;;;;5086281;28;20435;-84
2022/10/01 01:41:11;;;;;;;0.20;0.20;;;10.20;99.90;;;;;;5065917;28;21042;-84
2022/10/01 01:43:40;;;;;;;0.20;0.20;;;10.10;99.90;;;;;;5082479;28;20452;-87
2022/10/01 01:46:09;;;;;;;0.20;0.20;;;10.20;99.90;;;;;;5084849;28;20443;-86
2022/10/01 01:48:37;;;;;;;0.20;0.20;;;10.20;99.90;;;;;;5086342;28;20747;-85
2022/10/01 01:51:44;;;;;;;0.20;0.20;;;10.20;99.90;;;;;;5087183;28;20439;-83
2022/10/01 01:54:10;;;;;;;0.20;0.20;;;10.30;99.90;;;;;;5041497;28;20459;-85
2022/10/01 01:56:35;;;;;;;0.20;0.20;;;10.30;99.90;;;;;;5085025;28;20435;-87
2022/10/01 01:59:02;;;;;;;0.20;0.20;;;10.20;99.90;;;;;;5084963;28;20220;-85
2022/10/01 02:01:32;;;;;;;0.20;0.20;;;10.20;99.90;;;;;;5089440;28;20755;-86
2022/10/01 02:03:58;;;;;;;0.20;0.20;;;10.20;99.90;;;;;;5089364;28;22685;-87
2022/10/01 02:06:39;;;;;;;0.20;0.20;;;10.20;99.90;;;;;;5066764;28;20467;-85
2022/10/01 02:09:13;;;;;;;0.20;0.20;;;10.20;99.90;;;;;;5066221;28;20193;-87
2022/10/01 02:11:52;;;;;;;0.20;0.20;;;10.20;99.90;;;;;;5067048;28;20550;-86
2022/10/01 02:14:34;;;;;;;0.20;0.20;;;10.30;99.90;;;;;;5080261;28;20917;-85
2022/10/01 02:17:12;;;;;;;0.20;0.20;;;10.20;99.90;;;;;;5080832;28;20508;-87
2022/10/01 02:19:50;;;;;;;0.20;0.20;;;10.30;99.90;;;;;;5087790;28;20525;-85
2022/10/01 02:22:30;;;;;;;0.20;0.20;;;10.30;99.90;;;;;;5086006;28;20479;-86
2022/10/01 02:24:58;;;;;;;0.20;0.20;;;10.30;99.90;;;;;;5083726;28;20476;-84
2022/10/01 02:27:37;;;;;;;0.20;0.20;;;10.30;99.90;;;;;;5065256;28;20443;-89
2022/10/01 02:30:06;;;;;;;0.20;0.20;;;10.30;99.90;;;;;;5084512;28;20462;-85
2022/10/01 02:32:33;;;;;;;0.20;0.20;;;10.30;99.90;;;;;;5071310;28;21253;-88
2022/10/01 02:35:00;;;;;;;0.27;0.27;;;10.30;99.90;;;;;;5084779;28;20542;-85
2022/10/01 02:37:27;;;;;;;0.20;0.20;;;10.30;99.90;;;;;;5065641;28;20809;-85
2022/10/01 02:39:55;;;;;;;0.20;0.20;;;10.30;99.90;;;;;;5080248;28;20439;-85
2022/10/01 02:42:25;;;;;;;0.20;0.20;;;10.30;99.90;;;;;;5065084;28;20490;-86
2022/10/01 02:44:53;;;;;;;0.20;0.20;;;10.30;99.90;;;;;;5069766;28;20443;-86
2022/10/01 02:47:23;;;;;;;0.20;0.20;;;10.40;99.90;;;;;;5090564;28;20547;-86
2022/10/01 02:49:51;;;;;;;0.20;0.20;;;10.40;99.90;;;;;;5066350;28;20439;-85
2022/10/01 02:52:27;;;;;;;0.20;0.20;;;10.40;99.90;;;;;;5085738;28;20474;-86
2022/10/01 02:55:09;;;;;;;0.20;0.20;;;10.50;99.90;;;;;;5067488;28;20772;-84
2022/10/01 02:57:35;;;;;;;0.20;0.20;;;10.40;99.90;;;;;;5069576;28;20497;-84
2022/10/01 03:00:14;;;;;;;0.20;0.20;;;10.40;99.90;;;;;;5076953;28;20451;-87
2022/10/01 03:02:39;;;;;;;0.20;0.20;;;10.40;99.90;;;;;;5103756;28;20560;-84
2022/10/01 03:05:06;;;;;;;0.20;0.20;;;10.40;99.90;;;;;;5066403;28;20900;-86
2022/10/01 03:07:36;;;;;;;0.20;0.20;;;10.40;99.90;;;;;;5088462;28;20261;-85
2022/10/01 03:10:04;;;;;;;0.20;0.20;;;10.50;99.90;;;;;;5062960;28;20446;-84
2022/10/01 03:12:30;;;;;;;0.20;0.20;;;10.40;99.90;;;;;;5088773;28;20438;-87
2022/10/01 03:14:55;;;;;;;0.20;0.20;;;10.50;99.90;;;;;;5082150;28;21063;-85
2022/10/01 03:17:21;;;;;;;0.20;0.20;;;10.50;99.90;;;;;;5061345;28;20210;-84
2022/10/01 03:19:46;;;;;;;0.20;0.20;;;10.40;99.90;;;;;;5067473;28;20185;-85
2022/10/01 03:22:14;;;;;;;0.20;0.20;;;10.50;99.90;;;;;;5083638;28;20815;-85
2022/10/01 03:24:39;;;;;;;0.20;0.20;;;10.40;99.90;;;;;;5064804;28;20189;-86
2022/10/01 03:27:05;;;;;;;0.20;0.20;;;10.40;99.90;;;;;;5066471;28;20547;-83
2022/10/01 03:29:31;;;;;;;0.20;0.20;;;10.40;99.90;;;;;;5066157;28;20696;-86
2022/10/01 03:31:56;;;;;;;0.20;0.20;;;10.50;99.90;;;;;;5065395;28;20192;-84
2022/10/01 03:34:22;;;;;;;0.20;0.20;;;10.40;99.90;;;;;;5083046;28;20195;-85
2022/10/01 03:36:48;;;;;;;0.20;0.20;;;10.40;99.90;;;;;;5085323;28;20198;-85
2022/10/01 03:39:13;;;;;;;0.20;0.20;;;10.50;99.90;;;;;;5085035;28;20216;-84
2022/10/01 03:41:39;;;;;;;0.20;0.20;;;10.40;99.90;;;;;;5084102;28;20552;-84
2022/10/01 03:44:05;;;;;;;0.20;0.20;;;10.40;99.90;;;;;;5087440;28;20193;-86
2022/10/01 03:46:30;;;;;;;0.20;0.20;;;10.50;99.90;;;;;;5084458;28;20196;-84
2022/10/01 03:48:58;;;;;;;0.20;0.20;;;10.50;99.90;;;;;;5083466;28;20212;-86
2022/10/01 03:51:23;;;;;;;0.20;0.20;;;10.50;99.90;;;;;;5066877;28;20649;-84
2022/10/01 03:53:49;;;;;;;0.20;0.20;;;10.40;99.90;;;;;;5083783;28;20465;-86
2022/10/01 03:56:17;;;;;;;0.20;0.20;;;10.40;99.90;;;;;;5065071;28;20649;-86
2022/10/01 03:58:42;;;;;;;0.20;0.20;;;10.40;99.90;;;;;;5065487;28;20645;-87
2022/10/01 04:01:08;;;;;;;0.20;0.20;;;10.40;99.90;;;;;;5084924;28;20443;-82
2022/10/01 04:03:34;;;;;;;0.20;0.20;;;10.40;99.90;;;;;;5062227;28;20182;-85
2022/10/01 04:05:59;;;;;;;0.20;0.20;;;10.40;99.90;;;;;;5066463;28;20177;-87
2022/10/01 04:08:25;;;;;;;0.20;0.20;;;10.40;99.90;;;;;;5087157;28;20185;-87
2022/10/01 04:10:50;;;;;;;0.20;0.20;;;10.30;99.90;;;;;;5085675;28;20184;-87
2022/10/01 04:13:16;;;;;;;0.20;0.20;;;10.40;99.90;;;;;;5087721;28;20619;-87
2022/10/01 04:15:42;;;;;;;0.20;0.20;;;10.40;99.90;;;;;;5070757;28;20251;-87
2022/10/01 04:18:07;;;;;;;0.20;0.20;;;10.30;99.90;;;;;;5091721;28;20438;-85
2022/10/01 04:20:34;;;;;;;0.20;0.20;;;10.40;99.90;;;;;;5087946;28;20208;-86
2022/10/01 04:23:00;;;;;;;0.20;0.20;;;10.40;99.90;;;;;;5070024;28;20340;-86
2022/10/01 04:25:27;;;;;;;0.20;0.20;;;10.30;99.90;;;;;;5069481;28;20499;-88
2022/10/01 04:27:58;;;;;;;0.20;0.20;;;10.40;99.90;;;;;;5069688;28;20485;-86
2022/10/01 04:30:26;;;;;;;0.20;0.20;;;10.40;99.90;;;;;;5069950;28;20439;-84
2022/10/01 04:32:52;;;;;;;0.20;0.20;;;10.30;99.90;;;;;;5071378;28;20451;-87
2022/10/01 04:35:17;;;;;;;0.20;0.20;;;10.30;99.90;;;;;;5088125;28;20471;-87
2022/10/01 04:37:43;;;;;;;0.20;0.20;;;10.40;99.90;;;;;;5071623;28;20181;-87
2022/10/01 04:40:09;;;;;;;0.20;0.20;;;10.30;99.90;;;;;;5090170;28;20720;-86
2022/10/01 04:42:42;;;;;;;0.20;0.20;;;10.30;99.90;;;;;;5088750;28;20213;-86
2022/10/01 04:45:09;;;;;;;0.20;0.20;;;10.20;99.90;;;;;;5069868;28;20439;-87
2022/10/01 04:47:34;;;;;;;0.20;0.20;;;10.10;99.90;;;;;;5088623;28;20434;-89
2022/10/01 04:50:00;;;;;;;0.20;0.20;;;10.00;99.90;;;;;;5088007;28;20808;-86
2022/10/01 04:52:25;;;;;;;0.20;0.20;;;10.00;99.90;;;;;;5085008;28;20185;-86
2022/10/01 04:54:51;;;;;;;0.20;0.20;;;9.90;99.90;;;;;;5066177;28;20661;-85
2022/10/01 04:57:20;;;;;;;0.20;0.20;;;9.90;99.90;;;;;;5089126;28;20637;-87
2022/10/01 04:59:46;;;;;;;0.20;0.20;;;9.80;99.90;;;;;;5090102;28;20322;-83
2022/10/01 05:02:12;;;;;;;0.20;0.20;;;9.80;99.90;;;;;;5084200;28;20558;-84
2022/10/01 05:04:38;;;;;;;0.20;0.20;;;9.80;99.90;;;;;;5081894;28;20250;-86
2022/10/01 05:07:03;;;;;;;0.20;0.20;;;9.70;99.90;;;;;;5086413;28;20189;-82
2022/10/01 05:09:29;;;;;;;0.20;0.20;;;9.70;99.90;;;;;;5081110;28;20212;-84
2022/10/01 05:11:54;;;;;;;0.20;0.20;;;9.70;99.90;;;;;;5082503;28;20223;-84
2022/10/01 05:14:20;;;;;;;0.20;0.20;;;9.70;99.90;;;;;;5088346;28;20229;-84
2022/10/01 05:16:46;;;;;;;0.20;0.20;;;9.70;99.90;;;;;;5076812;28;20184;-80
2022/10/01 05:19:12;;;;;;;0.20;0.20;;;9.60;99.90;;;;;;5072087;28;20185;-82
2022/10/01 05:21:37;;;;;;;0.30;0.30;;;9.60;99.90;;;;;;5074905;28;20220;-84
2022/10/01 05:24:04;;;;;;;0.20;0.20;;;9.60;99.90;;;;;;5089176;28;20435;-84
2022/10/01 05:26:30;;;;;;;0.20;0.20;;;9.60;99.90;;;;;;5081847;28;20178;-84
2022/10/01 05:28:58;;;;;;;0.20;0.20;;;9.60;99.90;;;;;;5070021;28;21003;-82
2022/10/01 05:31:24;;;;;;;0.20;0.20;;;9.60;99.90;;;;;;5066005;28;20448;-81
2022/10/01 05:33:49;;;;;;;0.20;0.20;;;9.50;99.90;;;;;;5089332;28;20560;-84
2022/10/01 05:36:15;;;;;;;0.20;0.20;;;9.50;99.90;;;;;;5068884;28;20220;-83
2022/10/01 05:38:41;;;;;;;0.20;0.20;;;9.50;99.90;;;;;;5067961;28;20189;-83
2022/10/01 05:41:07;;;;;;;0.20;0.20;;;9.50;99.90;;;;;;5073327;28;20206;-83
2022/10/01 05:43:32;;;;;;;0.20;0.20;;;9.50;99.90;;;;;;5085084;28;20234;-83
2022/10/01 05:46:04;;;;;;;0.20;0.20;;;9.50;99.90;;;;;;5102098;28;20430;-82
2022/10/01 05:48:33;;;;;;;0.27;0.27;;;9.50;99.90;;;;;;5096358;28;20654;-82
2022/10/01 05:50:59;;;;;;;0.20;0.20;;;9.50;99.90;;;;;;5077784;28;20439;-84
2022/10/01 05:53:24;;;;;;;0.30;0.30;;;9.50;99.90;;;;;;5102350;28;20442;-84
2022/10/01 05:55:50;;;;;;;0.30;0.30;;;9.50;99.90;;;;;;5072202;28;20193;-84
2022/10/01 05:58:16;;;;;;;0.20;0.20;;;9.50;99.90;;;;;;5084764;28;20275;-81
2022/10/01 06:00:42;;;;;;;0.20;0.20;;;9.50;99.90;;;;;;5084739;28;20249;-82
2022/10/01 06:03:11;;;;;;;0.20;0.20;;;9.50;99.90;;;;;;5086266;28;20224;-84
2022/10/01 06:05:37;;;;;;;0.20;0.20;;;9.50;99.90;;;;;;5091707;28;20970;-83
2022/10/01 06:08:06;;;;;;;0.20;0.20;;;9.40;99.90;;;;;;5080760;28;20609;-83
2022/10/01 06:10:32;;;;;;;0.30;0.30;;;9.50;99.90;;;;;;5070812;28;20541;-83
2022/10/01 06:13:01;;;;;;;0.20;0.20;;;9.40;99.90;;;;;;5088227;28;21059;-82
2022/10/01 06:15:28;;;;;;;0.20;0.20;;;9.40;99.90;;;;;;5072904;28;20314;-84
2022/10/01 06:17:53;;;;;;;0.20;0.20;;;9.40;99.90;;;;;;5087506;28;20447;-84
2022/10/01 06:20:19;;;;;;;0.30;0.30;;;9.40;99.90;;;;;;5084787;28;20431;-83
2022/10/01 06:22:52;;;;;;;0.20;0.20;;;9.40;99.90;;;;;;5089434;28;20793;-82
2022/10/01 06:25:18;;;;;;;0.30;0.30;;;9.40;99.90;;;;;;5069803;28;20322;-84
2022/10/01 06:27:43;;;;;;;0.20;0.20;;;9.30;99.90;;;;;;5091917;28;20526;-84
2022/10/01 06:30:09;;;;;;;0.20;0.20;;;9.30;99.90;;;;;;5083684;28;20197;-83
2022/10/01 06:32:36;;;;;;;0.30;0.30;;;9.30;99.90;;;;;;5084699;28;20193;-84
2022/10/01 06:35:02;;;;;;;0.30;0.30;;;9.30;99.90;;;;;;5075839;28;20449;-83
2022/10/01 06:37:28;;;;;;;0.20;0.20;;;9.40;99.90;;;;;;5085290;28;20439;-83
2022/10/01 06:39:54;;;;;;;0.20;0.20;;;9.30;99.90;;;;;;5085159;28;20454;-81
2022/10/01 06:42:19;;;;;;;0.20;0.20;;;9.30;99.90;;;;;;5091925;28;20930;-82
2022/10/01 06:44:44;;;;;;;0.20;0.20;;;9.30;99.90;;;;;;5063801;28;20190;-87
2022/10/01 06:47:10;;;;;;;0.30;0.30;;;9.30;99.90;;;;;;5068722;28;20826;-80
2022/10/01 06:49:35;;;;;;;0.20;0.20;;;9.30;99.90;;;;;;5085078;28;20207;-82
2022/10/01 06:54:45;;;;;;;0.20;0.20;;;9.30;99.90;;;;;;5081430;28;20196;-84
2022/10/01 06:57:11;;;;;;;0.30;0.30;;;9.20;99.90;;;;;;5086547;28;20508;-85
2022/10/01 06:59:36;;;;;;;0.30;0.30;;;9.20;99.90;;;;;;5082178;28;20177;-81
2022/10/01 07:02:05;;;;;;;0.20;0.20;;;9.20;99.90;;;;;;5078588;28;21238;-82
2022/10/01 07:04:30;;;;;;;0.20;0.20;;;9.20;99.90;;;;;;5092614;28;20317;-81
2022/10/01 07:06:56;;;;;;;0.30;0.30;;;9.20;99.90;;;;;;5080000;28;21029;-82
2022/10/01 07:09:25;;;;;;;0.27;0.27;;;9.10;99.90;;;;;;5083699;28;20219;-79
2022/10/01 07:11:52;;;;;;;0.20;0.20;;;9.20;99.90;;;;;;5064850;28;20212;-80
2022/10/01 07:14:18;;;;;;;0.20;0.20;;;9.10;99.90;;;;;;5080798;28;20584;-81
2022/10/01 07:16:43;;;;;;;0.20;0.20;;;9.10;99.90;;;;;;5079656;28;20584;-81
2022/10/01 07:19:09;;;;;;;0.20;0.20;;;9.10;99.90;;;;;;5068162;28;20518;-84
2022/10/01 07:21:35;;;;;;;0.30;0.30;;;9.10;99.90;;;;;;5086506;28;20212;-83
2022/10/01 07:24:00;;;;;;;0.30;0.30;;;9.10;99.90;;;;;;5079684;28;20291;-81
2022/10/01 07:26:26;;;;;;;0.23;0.23;;;9.10;99.90;;;;;;5083199;28;20645;-83
2022/10/01 07:28:51;;;;;;;0.20;0.20;;;9.10;99.90;;;;;;5070084;28;20280;-81
2022/10/01 07:31:17;;;;;;;0.20;0.20;;;9.10;99.90;;;;;;5081382;28;20734;-80
2022/10/01 07:33:42;;;;;;;0.20;0.20;;;9.10;99.90;;;;;;5064095;28;20547;-80
2022/10/01 07:36:10;;;;;;;0.27;0.27;;;9.10;99.90;;;;;;5079456;28;20231;-81
2022/10/01 07:38:35;;;;;;;0.30;0.30;;;9.10;99.90;;;;;;5068535;28;20653;-82
2022/10/01 07:41:03;;;;;;;0.20;0.20;;;9.10;99.90;;;;;;5079028;28;20525;-81
2022/10/01 07:43:30;;;;;;;0.20;0.20;;;9.10;99.90;;;;;;5063385;28;20211;-83
2022/10/01 07:45:56;;;;;;;0.20;0.20;;;9.10;99.90;;;;;;5085578;28;20475;-86
2022/10/01 07:48:23;;;;;;;0.30;0.30;;;9.10;99.90;;;;;;5087157;28;21166;-83
2022/10/01 07:50:49;;;;;;;0.30;0.30;;;9.10;99.90;;;;;;5083776;28;20443;-83
2022/10/01 07:53:16;;;;;;;0.30;0.30;;;9.10;99.90;;;;;;5087209;28;20443;-82
2022/10/01 07:55:42;;;;;;;0.30;0.30;;;9.10;99.90;;;;;;5083082;28;20438;-80
2022/10/01 07:58:08;;;;;;;0.20;0.20;;;9.10;99.90;;;;;;5082139;28;21023;-83
2022/10/01 08:00:34;;;;;;;0.30;0.30;;;9.10;99.90;;;;;;5081667;28;20471;-83
2022/10/01 08:03:00;;;;;;;0.30;0.30;;;9.10;99.90;;;;;;5081761;28;20733;-80
2022/10/01 08:05:32;;;;;;;0.20;0.20;;;9.10;99.90;;;;;;5084119;28;20600;-82
2022/10/01 08:08:03;;;;;;;0.20;0.20;;;9.10;99.90;;;;;;5084438;28;20335;-81
2022/10/01 08:10:29;;;;;;;0.20;0.20;;;9.20;99.90;;;;;;5063780;28;20443;-82
2022/10/01 08:13:13;;;;;;;0.20;0.20;;;9.20;99.90;;;;;;5082110;28;20439;-80
2022/10/01 08:15:40;;;;;;;0.30;0.30;;;9.20;99.90;;;;;;5084844;28;21026;-81
2022/10/01 08:18:06;;;;;;;0.20;0.20;;;9.20;99.90;;;;;;5085416;28;20570;-81
2022/10/01 08:20:31;;;;;;;0.20;0.20;;;9.20;99.90;;;;;;5087103;28;20465;-82
2022/10/01 08:23:05;;;;;;;0.20;0.20;;;9.20;99.90;;;;;;5083298;28;20362;-80
2022/10/01 08:25:31;;;;;;;0.20;0.20;;;9.20;99.90;;;;;;5080866;28;20213;-80
2022/10/01 08:27:57;;;;;;;0.20;0.20;;;9.20;99.90;;;;;;5044652;28;20521;-82
2022/10/01 08:30:23;;;;;;;0.30;0.30;;;9.30;99.90;;;;;;5064861;28;20439;-82
2022/10/01 08:32:53;;;;;;;0.20;0.20;;;9.30;99.90;;;;;;5085152;28;20660;-82
2022/10/01 08:35:19;;;;;;;0.20;0.20;;;9.30;99.90;;;;;;5097520;28;20516;-83
2022/10/01 08:37:44;;;;;;;0.20;0.20;;;9.30;99.90;;;;;;5083746;28;20705;-80
2022/10/01 08:40:10;;;;;;;0.30;0.30;;;9.30;99.90;;;;;;5068618;28;20222;-81
2022/10/01 08:42:51;;;;;;;0.20;0.20;;;9.40;99.90;;;;;;5072780;28;20478;-81
2022/10/01 08:45:25;;;;;;;0.30;0.30;;;9.40;99.90;;;;;;5091028;28;20842;-81
2022/10/01 08:48:00;;;;;;;0.20;0.20;;;9.40;99.90;;;;;;5088696;28;20442;-82
2022/10/01 08:51:02;;;;;;;0.30;0.30;;;9.40;99.90;;;;;;5074913;28;20441;-82
2022/10/01 08:53:56;;;;;;;0.20;0.20;;;9.40;99.90;;;;;;5088843;28;21022;-80
2022/10/01 08:56:27;;;;;;;0.27;0.27;;;9.40;99.90;;;;;;5072670;28;21000;-81
2022/10/01 08:58:57;;;;;;;0.20;0.20;;;9.40;99.90;;;;;;5062594;28;20482;-80
2022/10/01 09:01:24;;;;;;;0.20;0.20;;;9.40;99.90;;;;;;5087146;28;20499;-80
2022/10/01 09:03:49;;;;;;;0.20;0.20;;;9.50;99.90;;;;;;5092086;28;20446;-81
2022/10/01 09:06:26;;;;;;;0.20;0.20;;;9.50;99.90;;;;;;5090198;28;21768;-81
2022/10/01 09:09:12;;;;;;;0.20;0.20;;;9.50;99.90;;;;;;5090090;28;20193;-82
2022/10/01 09:11:58;;;;;;;0.20;0.20;;;9.50;99.90;;;;;;5091019;28;20458;-81
2022/10/01 09:14:40;;;;;;;0.20;0.20;;;9.50;99.90;;;;;;5065754;28;20479;-82
2022/10/01 09:17:46;;;;;;;0.20;0.20;;;9.60;99.90;;;;;;5084024;28;21193;-81
2022/10/01 09:20:30;;;;;;;0.20;0.20;;;9.50;99.90;;;;;;5055725;28;20466;-82
2022/10/01 09:23:15;;;;;;;0.20;0.20;;;9.60;99.90;;;;;;5067217;28;20550;-79
2022/10/01 09:25:43;;;;;;;0.20;0.20;;;9.60;99.90;;;;;;5085986;28;20849;-80
2022/10/01 09:28:14;;;;;;;0.20;0.20;;;9.60;99.90;;;;;;5086171;28;20537;-80
2022/10/01 09:30:43;;;;;;;0.20;0.20;;;9.60;99.90;;;;;;5071044;28;22257;-80
2022/10/01 09:33:16;;;;;;;0.20;0.20;;;9.70;99.90;;;;;;5069148;28;20947;-79
2022/10/01 09:35:49;;;;;;;0.20;0.20;;;9.70;99.90;;;;;;5083448;28;20736;-80
2022/10/01 09:38:14;;;;;;;0.20;0.20;;;9.70;99.90;;;;;;5071575;28;20496;-79
2022/10/01 09:40:55;;;;;;;0.20;0.20;;;9.70;99.90;;;;;;5090579;28;20888;-80
2022/10/01 09:43:29;;;;;;;0.20;0.20;;;9.80;99.90;;;;;;5082540;28;20303;-80
2022/10/01 09:45:56;;;;;;;0.20;0.20;;;9.80;99.90;;;;;;5079310;28;20438;-80
2022/10/01 09:48:37;;;;;;;0.20;0.20;;;9.80;99.90;;;;;;5085705;28;20881;-80
2022/10/01 09:51:26;;;;;;;0.20;0.20;;;9.90;99.90;;;;;;5081266;28;20939;-82
2022/10/01 09:54:11;;;;;;;0.20;0.20;;;9.80;99.90;;;;;;5085416;28;20443;-81
2022/10/01 09:56:42;;;;;;;0.20;0.20;;;9.90;99.90;;;;;;5085727;28;20435;-82
2022/10/01 09:59:16;;;;;;;0.20;0.20;;;9.90;99.90;;;;;;5089562;28;20446;-81
2022/10/01 10:01:49;;;;;;;0.20;0.20;;;9.90;99.90;;;;;;5089236;28;20481;-80
2022/10/01 10:04:23;;;;;;;0.20;0.20;;;10.00;99.90;;;;;;5073139;28;20427;-82
2022/10/01 10:06:50;;;;;;;0.20;0.20;;;10.00;99.90;;;;;;5085611;28;20439;-82
2022/10/01 10:09:20;;;;;;;0.20;0.20;;;10.00;99.90;;;;;;5087765;28;20458;-78
2022/10/01 10:11:47;;;;;;;0.20;0.20;;;10.00;99.90;;;;;;5091018;28;20484;-80
2022/10/01 10:14:32;;;;;;;0.20;0.20;;;10.00;99.90;;;;;;5087366;28;20470;-81
2022/10/01 10:17:11;;;;;;;0.20;0.20;;;10.00;99.90;;;;;;5078625;28;20544;-84
2022/10/01 10:19:37;;;;;;;0.20;0.20;;;10.00;99.90;;;;;;5099902;28;20934;-80
2022/10/01 10:22:18;;;;;;;0.20;0.20;;;10.10;99.90;;;;;;5067759;28;20479;-81
2022/10/01 10:24:43;;;;;;;0.20;0.20;;;10.10;99.90;;;;;;5078554;28;20465;-81
2022/10/01 10:27:29;;;;;;;0.10;0.10;;;10.20;99.90;;;;;;5080827;28;20525;-82
2022/10/01 10:30:12;;;;;;;0.10;0.10;;;10.20;99.90;;;;;;5076223;28;20185;-80
2022/10/01 10:32:40;;;;;;;0.10;0.10;;;10.20;99.90;;;;;;5078530;28;20460;-82
2022/10/01 10:35:13;;;;;;;0.20;0.20;;;10.20;99.90;;;;;;5084282;28;20902;-81
2022/10/01 10:37:47;;;;;;;0.10;0.10;;;10.30;99.90;;;;;;5084954;28;20451;-81
2022/10/01 10:40:24;;;;;;;0.10;0.10;;;10.50;99.90;;;;;;5076292;28;20813;-80
2022/10/01 10:42:52;;;;;;;0.20;0.20;;;10.60;99.90;;;;;;5080896;28;20514;-79
2022/10/01 10:45:32;;;;;;;0.20;0.20;;;10.90;99.90;;;;;;5083035;28;20861;-80
2022/10/01 10:48:01;;;;;;;0.10;0.10;;;11.20;99.90;;;;;;5083345;28;20447;-79
2022/10/01 10:50:32;;;;;;;0.10;0.10;;;11.20;99.90;;;;;;5087266;28;20438;-80
2022/10/01 10:52:58;;;;;;;0.10;0.10;;;11.20;99.90;;;;;;5105082;28;20439;-82
2022/10/01 10:55:29;;;;;;;0.10;0.10;;;11.20;99.90;;;;;;5067885;28;20432;-83
2022/10/01 10:58:15;;;;;;;0.10;0.10;;;11.40;99.90;;;;;;5077952;28;20546;-80
2022/10/01 11:00:51;;;;;;;0.10;0.10;;;11.70;99.90;;;;;;5066731;28;20537;-81
2022/10/01 11:03:20;;;;;;;0.10;0.10;;;11.90;99.90;;;;;;5064620;28;20554;-81
2022/10/01 11:05:50;;;;;;;0.10;0.10;;;12.20;99.90;;;;;;5067159;28;20434;-80
2022/10/01 11:08:26;;;;;;;0.10;0.10;;;12.50;99.90;;;;;;5069430;28;20447;-80
2022/10/01 11:11:04;;;;;;;0.10;0.10;;;13.10;99.90;;;;;;5082275;28;20446;-83
2022/10/01 11:13:57;;;;;;;0.10;0.10;;;14.00;99.90;;;;;;5085772;28;20962;-83
2022/10/01 11:16:53;;;;;;;0.10;0.10;;;14.50;99.90;;;;;;5076289;28;20448;-83
2022/10/01 11:19:37;;;;;;;0.10;0.10;;;14.40;99.90;;;;;;5074303;28;20449;-82
2022/10/01 11:22:24;;;;;;;0.10;0.10;;;15.00;99.90;;;;;;5082685;28;20550;-81
2022/10/01 11:24:55;;;;;;;0.10;0.10;;;15.20;99.90;;;;;;5075474;28;20535;-82
2022/10/01 11:27:46;;;;;;;0.10;0.10;;;16.30;99.90;;;;;;5054886;28;20441;-81
2022/10/01 11:30:25;;;;;;;0.00;0.00;;;16.80;99.90;;;;;;5065426;28;20461;-86
2022/10/01 11:33:10;;;;;;;0.00;0.00;;;17.20;99.90;;;;;;5083099;28;20430;-86
2022/10/01 11:35:55;;;;;;;0.00;0.00;;;17.10;99.90;;;;;;5086533;28;20442;-83
2022/10/01 11:39:01;;;;;;;0.00;0.00;;;15.90;99.90;;;;;;5066473;28;20435;-84
2022/10/01 11:41:39;;;;;;;0.00;0.00;;;15.90;99.90;;;;;;5053163;28;20448;-83
2022/10/01 11:44:05;;;;;;;0.00;0.00;;;16.70;99.90;;;;;;5067170;28;20489;-83
2022/10/01 11:46:48;;;;;;;0.00;0.00;;;16.70;99.90;;;;;;5082581;28;20951;-82
2022/10/01 11:49:37;;;;;;;0.00;0.00;;;16.50;99.90;;;;;;5068014;28;20526;-83
2022/10/01 11:52:22;;;;;;;0.10;0.10;;;17.00;99.90;;;;;;5066408;28;20487;-83
2022/10/01 12:00:53;;;;;;;0.10;0.10;;;19.50;99.90;;;;;;5084586;28;20546;-86
2022/10/01 12:03:24;;;;;;;0.10;0.10;;;20.20;99.90;;;;;;5086473;28;20500;-86
2022/10/01 12:05:52;;;;;;;0.10;0.10;;;19.00;99.90;;;;;;5097899;28;20555;-87
2022/10/01 12:08:24;;;;;;;0.10;0.10;;;18.60;99.90;;;;;;5080608;28;21033;-86
2022/10/01 12:10:58;;;;;;;0.10;0.10;;;19.80;99.90;;;;;;5081885;28;20995;-85
2022/10/01 12:13:51;;;;;;;0.00;0.00;;;20.60;99.90;;;;;;5086905;28;20507;-86
2022/10/01 12:16:21;;;;;;;0.10;0.07;;;21.00;99.90;;;;;;5081966;28;20466;-84
2022/10/01 12:18:57;;;;;;;0.10;0.10;;;20.50;99.90;;;;;;5060660;28;20443;-86
2022/10/01 12:21:27;;;;;;;0.10;0.10;;;20.80;99.90;;;;;;5086222;28;20443;-84
2022/10/01 12:24:19;;;;;;;0.10;0.00;;;20.80;99.90;;;;;;5081052;28;20525;-87
2022/10/01 12:27:03;;;;;;;0.10;0.00;;;21.10;99.90;;;;;;5076276;28;20826;-85
2022/10/01 12:29:38;;;;;;;0.10;0.00;;;20.70;99.90;;;;;;5068077;28;20595;-85
2022/10/01 12:32:15;;;;;;;0.10;0.00;;;19.80;99.90;;;;;;5067408;28;20438;-86
2022/10/01 12:35:04;;;;;;;0.00;0.00;;;18.80;99.90;;;;;;5086385;28;20484;-86
2022/10/01 12:37:53;;;;;;;0.07;0.00;;;19.30;99.90;;;;;;5062755;28;20513;-88
2022/10/01 12:40:38;;;;;;;0.10;0.00;;;18.80;99.90;;;;;;5078138;28;20442;-90
2022/10/01 12:43:38;;;;;;;0.10;0.00;;;18.20;99.90;;;;;;5084071;28;21016;-88
2022/10/01 12:46:27;;;;;;;0.10;0.10;;;18.00;99.90;;;;;;5065769;28;20447;-87
2022/10/01 12:48:59;;;;;;;0.10;0.10;;;17.20;99.90;;;;;;5060139;28;20466;-87
2022/10/01 12:51:42;;;;;;;0.10;0.00;;;16.80;99.90;;;;;;5072344;28;20453;-85
2022/10/01 12:54:42;;;;;;;0.10;0.10;;;16.60;99.90;;;;;;5073544;28;21296;-84
2022/10/01 12:57:42;;;;;;;0.10;0.00;;;16.40;99.90;;;;;;5088593;28;20467;-87
2022/10/01 13:00:13;;;;;;;0.10;0.00;;;18.40;99.90;;;;;;5082672;28;20818;-86
2022/10/01 13:03:01;;;;;;;0.10;0.00;;;19.40;99.90;;;;;;5080870;28;20518;-87
2022/10/01 13:05:39;;;;;;;0.10;0.00;;;20.10;99.90;;;;;;5100112;28;20450;-87
2022/10/01 13:08:30;;;;;;;0.10;0.00;;;20.60;99.90;;;;;;5089359;28;20484;-87
2022/10/01 13:11:02;;;;;;;0.10;0.00;;;20.80;99.90;;;;;;5057264;28;20513;-87
2022/10/01 13:13:32;;;;;;;0.10;0.00;;;21.40;99.90;;;;;;5079239;28;20797;-87
2022/10/01 13:16:19;;;;;;;0.10;0.00;;;21.50;99.90;;;;;;5090180;28;20462;-87
2022/10/01 13:19:04;;;;;;;0.10;0.00;;;21.30;99.90;;;;;;5096700;28;20537;-86
2022/10/01 13:22:07;;;;;;;0.10;0.00;;;19.80;99.90;;;;;;5071765;28;20465;-84